Time;durP1;ratioP1;P1;durP2;ratioP2;P2;SDS_P1;SDS_P2;PMS_P1;PMS_P2;Temp;Humidity;BMP_temperature;BMP_pressure;BME280_temperature;BME280_humidity;BME280_pressure;Samples;Min_cycle;Max_cycle;Signal;HPM_P1;HPM_P2
2022/12/10 00:01:29;;;;;;;20.00;14.35;;;;;;;1.38;80.22;95653.53;1500524;95;25704;-73
2022/12/10 00:03:56;;;;;;;24.02;14.60;;;;;;;1.37;80.21;95652.39;1546474;92;25875;-75
2022/12/10 00:06:30;;;;;;;22.30;15.20;;;;;;;1.33;80.22;95649.80;1556111;89;28263;-74
2022/12/10 00:08:56;;;;;;;22.95;15.93;;;;;;;1.33;80.28;95647.14;1596805;89;25811;-74
2022/12/10 00:11:24;;;;;;;28.50;16.97;;;;;;;1.32;80.28;95647.68;1572480;90;25738;-77
2022/12/10 00:13:52;;;;;;;27.42;18.07;;;;;;;1.31;80.32;95641.23;1598780;89;25699;-74
2022/12/10 00:16:22;;;;;;;31.77;19.27;;;;;;;1.29;80.32;95656.55;1606483;86;25815;-78
2022/12/10 00:18:50;;;;;;;29.02;19.07;;;;;;;1.28;80.35;95649.08;1639205;86;27575;-77
2022/12/10 00:21:21;;;;;;;27.22;18.17;;;;;;;1.28;80.43;95646.93;1672145;85;25927;-75
2022/12/10 00:23:49;;;;;;;22.45;15.40;;;;;;;1.31;80.47;95651.86;1680663;85;25296;-75
2022/12/10 00:26:20;;;;;;;21.02;13.50;;;;;;;1.33;80.49;95652.45;1680787;84;25736;-74
2022/12/10 00:28:48;;;;;;;17.30;12.80;;;;;;;1.32;80.44;95658.31;1680738;84;25409;-74
2022/12/10 00:31:18;;;;;;;20.20;13.58;;;;;;;1.32;80.45;95652.17;1680805;83;27418;-73
2022/12/10 00:33:46;;;;;;;19.65;13.10;;;;;;;1.34;80.48;95658.09;1680827;84;25818;-77
2022/12/10 00:36:17;;;;;;;18.60;12.78;;;;;;;1.35;80.46;95659.73;1722116;81;26004;-74
2022/12/10 00:38:45;;;;;;;16.65;12.60;;;;;;;1.35;80.44;95661.06;1764485;80;25698;-74
2022/12/10 00:41:12;;;;;;;15.80;12.10;;;;;;;1.36;80.48;95666.70;1764563;80;25738;-73
2022/12/10 00:43:40;;;;;;;18.70;12.00;;;;;;;1.38;80.45;95672.64;1742168;79;27566;-74
2022/12/10 00:46:08;;;;;;;18.55;11.10;;;;;;;1.38;80.46;95664.16;1734050;81;25772;-74
2022/12/10 00:48:35;;;;;;;16.65;11.75;;;;;;;1.40;80.44;95671.95;1753293;80;25706;-78
2022/12/10 00:51:12;;;;;;;16.15;12.33;;;;;;;1.40;80.37;95670.61;1713024;82;25815;-73
2022/12/10 00:53:41;;;;;;;21.57;15.40;;;;;;;1.35;80.32;95676.51;1713103;81;25756;-74
2022/12/10 00:56:10;;;;;;;22.58;16.20;;;;;;;1.30;80.35;95676.30;1724668;82;27383;-73
2022/12/10 00:58:38;;;;;;;19.45;14.43;;;;;;;1.28;80.37;95676.17;1721391;82;25779;-73
2022/12/10 01:01:26;;;;;;;20.35;14.13;;;;;;;1.27;80.41;95674.02;1709097;82;25826;-75
2022/12/10 01:03:59;;;;;;;18.87;12.80;;;;;;;1.24;80.40;95673.58;1720340;82;26457;-78
2022/12/10 01:06:30;;;;;;;18.15;13.03;;;;;;;1.20;80.48;95676.34;1703387;82;25727;-75
2022/12/10 01:09:01;;;;;;;16.67;13.20;;;;;;;1.19;80.56;95678.17;1642804;87;27391;-75
2022/12/10 01:11:32;;;;;;;17.32;12.55;;;;;;;1.20;80.59;95681.14;1612456;87;25584;-73
2022/12/10 01:14:00;;;;;;;20.35;13.50;;;;;;;1.19;80.62;95674.19;1585300;89;33082;-73
2022/12/10 01:16:27;;;;;;;18.65;12.93;;;;;;;1.21;80.67;95674.78;1584895;89;25834;-74
2022/12/10 01:18:56;;;;;;;20.12;12.88;;;;;;;1.23;80.69;95670.61;1584993;89;25947;-75
2022/12/10 01:21:24;;;;;;;17.17;12.37;;;;;;;1.24;80.67;95668.27;1585038;89;28216;-73
2022/12/10 01:23:52;;;;;;;19.75;13.68;;;;;;;1.23;80.70;95666.11;1584436;89;25782;-73
2022/12/10 01:26:22;;;;;;;18.05;13.48;;;;;;;1.27;80.73;95681.99;1584896;90;25957;-76
2022/12/10 01:28:50;;;;;;;17.07;12.45;;;;;;;1.28;80.74;95688.13;1584989;89;25930;-73
2022/12/10 01:31:22;;;;;;;19.32;13.40;;;;;;;1.29;80.72;95681.30;1585311;89;25793;-73
2022/12/10 01:33:50;;;;;;;20.90;14.03;;;;;;;1.30;80.68;95686.10;1585453;89;28398;-73
2022/12/10 01:36:29;;;;;;;23.27;15.03;;;;;;;1.30;80.66;95691.42;1626081;87;25777;-71
2022/12/10 01:38:55;;;;;;;26.23;16.12;;;;;;;1.30;80.65;95700.72;1624718;87;25885;-73
2022/12/10 01:41:33;;;;;;;23.65;15.50;;;;;;;1.29;80.65;95704.39;1628564;86;26519;-76
2022/12/10 01:44:11;;;;;;;22.27;14.63;;;;;;;1.29;80.58;95696.42;1636040;87;25744;-73
2022/12/10 01:46:46;;;;;;;21.97;14.98;;;;;;;1.26;80.58;95685.66;1627922;87;28178;-72
2022/12/10 01:49:20;;;;;;;21.23;13.80;;;;;;;1.25;80.60;95691.99;1518308;94;25860;-76
2022/12/10 01:51:52;;;;;;;22.10;14.85;;;;;;;1.23;80.59;95695.34;1427496;99;25652;-72
2022/12/10 01:54:27;;;;;;;24.10;15.20;;;;;;;1.18;80.59;95696.97;1387007;102;26830;-73
2022/12/10 01:57:04;;;;;;;23.35;15.65;;;;;;;1.16;80.70;95690.52;1375518;102;25908;-72
2022/12/10 01:59:33;;;;;;;22.58;14.95;;;;;;;1.17;80.76;95697.98;1363255;104;28753;-73
2022/12/10 02:02:10;;;;;;;23.50;14.78;;;;;;;1.17;80.80;95697.98;1356163;104;25975;-73
2022/12/10 02:05:23;;;;;;;19.20;13.78;;;;;;;1.16;80.69;95706.46;1366688;104;25922;-76
2022/12/10 02:07:58;;;;;;;21.35;13.85;;;;;;;1.15;80.73;95705.31;1416581;99;25854;-73
2022/12/10 02:10:53;;;;;;;17.87;13.40;;;;;;;1.13;80.79;95702.85;1397544;101;25941;-72
2022/12/10 02:13:36;;;;;;;;;;;;;;;;;;;;;
2022/12/10 02:28:24;;;;;;;;;;;;;;;;;;;;;
2022/12/10 02:37:10;;;;;;;18.35;13.25;;;;;;;0.95;81.26;95725.94;1333842;107;25953;-71
2022/12/10 02:39:42;;;;;;;19.23;13.75;;;;;;;0.95;81.23;95723.79;1333774;106;26343;-73
2022/12/10 02:42:10;;;;;;;20.43;13.83;;;;;;;0.94;81.22;95728.28;1333461;106;25431;-73
2022/12/10 02:44:40;;;;;;;19.55;13.30;;;;;;;0.96;81.23;95728.09;1352142;104;27480;-72
2022/12/10 02:47:08;;;;;;;16.67;12.68;;;;;;;0.97;81.23;95731.86;1376397;101;25507;-73
2022/12/10 02:49:37;;;;;;;18.73;12.40;;;;;;;0.99;81.19;95736.48;1389595;98;26066;-72
2022/12/10 02:52:12;;;;;;;17.62;12.20;;;;;;;1.01;81.17;95737.61;1441948;98;26504;-72
2022/12/10 02:54:46;;;;;;;18.10;12.35;;;;;;;0.99;81.11;95744.45;1477258;91;25911;-73
2022/12/10 02:57:42;;;;;;;22.15;13.30;;;;;;;0.99;81.14;95749.76;1615891;86;27466;-73
2022/12/10 03:00:16;;;;;;;19.52;12.55;;;;;;;0.98;81.15;95745.45;1626585;88;25802;-73
2022/12/10 03:03:24;;;;;;;19.17;11.73;;;;;;;0.96;81.13;95741.37;1609574;88;25843;-72
2022/12/10 03:06:14;;;;;;;18.62;12.23;;;;;;;0.98;81.16;95758.73;1625019;87;26558;-75
2022/12/10 03:08:52;;;;;;;18.52;12.43;;;;;;;0.99;81.14;95762.22;1686986;83;25836;-72
2022/12/10 03:11:25;;;;;;;16.77;12.33;;;;;;;0.96;81.09;95746.18;1718227;82;28066;-72
2022/12/10 03:14:06;;;;;;;19.75;12.47;;;;;;;0.96;81.14;95739.54;1786665;78;25719;-71
2022/12/10 03:16:39;;;;;;;17.37;12.25;;;;;;;0.98;81.18;95739.31;1689464;84;25763;-74
2022/12/10 03:19:12;;;;;;;17.57;12.43;;;;;;;1.00;81.17;95740.78;1740795;81;25676;-73
2022/12/10 03:21:41;;;;;;;17.42;11.68;;;;;;;1.01;81.16;95746.41;1738792;81;25782;-73
2022/12/10 03:24:11;;;;;;;15.85;11.38;;;;;;;1.02;81.18;95742.74;1742220;81;27394;-73
2022/12/10 03:26:39;;;;;;;17.00;11.68;;;;;;;1.03;81.16;95748.37;1740069;81;25772;-73
2022/12/10 03:29:11;;;;;;;17.45;11.57;;;;;;;1.04;81.12;95754.00;1748624;81;25706;-72
2022/12/10 03:31:40;;;;;;;15.10;11.03;;;;;;;1.04;81.12;95757.98;1685920;83;25836;-74
2022/12/10 03:34:10;;;;;;;16.02;11.50;;;;;;;1.02;81.05;95773.30;1657338;84;25833;-73
2022/12/10 03:36:39;;;;;;;16.15;11.15;;;;;;;1.01;81.07;95776.14;1695941;84;27394;-75
2022/12/10 03:39:06;;;;;;;16.77;11.25;;;;;;;1.01;81.07;95781.45;1662219;86;25847;-74
2022/12/10 03:41:33;;;;;;;15.72;11.00;;;;;;;1.00;81.08;95784.62;1696112;84;25838;-72
2022/12/10 03:44:00;;;;;;;15.48;10.88;;;;;;;1.02;81.10;95793.23;1662115;85;26502;-73
2022/12/10 03:46:30;;;;;;;15.63;10.48;;;;;;;1.01;81.08;95792.91;1695837;84;25730;-72
2022/12/10 03:48:59;;;;;;;14.70;10.35;;;;;;;1.02;81.10;95794.55;1662269;85;27391;-72
2022/12/10 03:51:26;;;;;;;12.98;9.20;;;;;;;1.03;81.07;95792.22;1695864;83;25304;-73
2022/12/10 03:53:52;;;;;;;12.10;8.88;;;;;;;1.04;81.07;95785.89;1696082;84;25794;-71
2022/12/10 03:56:21;;;;;;;13.10;9.28;;;;;;;1.05;81.06;95778.23;1697748;84;25458;-72
2022/12/10 03:58:48;;;;;;;12.40;9.33;;;;;;;1.04;81.02;95776.59;1698539;84;25992;-74
2022/12/10 04:01:16;;;;;;;12.13;8.98;;;;;;;1.06;81.05;95786.52;1698718;84;27456;-73
2022/12/10 04:03:44;;;;;;;13.05;8.85;;;;;;;1.06;81.01;95784.38;1698745;84;25240;-74
2022/12/10 04:06:17;;;;;;;14.15;10.43;;;;;;;1.08;81.05;95789.00;1698464;84;25304;-73
2022/12/10 04:08:45;;;;;;;11.85;8.78;;;;;;;1.10;81.04;95786.94;1664898;86;25699;-74
2022/12/10 04:11:14;;;;;;;14.35;10.08;;;;;;;1.09;81.02;95790.11;1636562;87;25762;-74
2022/12/10 04:16:27;;;;;;;12.58;9.30;;;;;;;1.09;81.01;95814.02;1704488;82;25504;-74
2022/12/10 04:19:02;;;;;;;12.73;8.65;;;;;;;1.08;80.99;95815.57;1709620;83;25842;-73
2022/12/10 04:27:20;;;;;;;17.15;10.45;;;;;;;0.90;81.09;95797.41;1704891;84;27444;-74
2022/12/10 04:29:47;;;;;;;18.45;10.88;;;;;;;0.89;81.16;95805.06;1763726;81;26519;-74
2022/12/10 04:32:13;;;;;;;19.20;11.30;;;;;;;0.89;81.16;95801.58;1782084;80;25699;-73
2022/12/10 04:34:40;;;;;;;21.25;12.28;;;;;;;0.90;81.23;95800.06;1777884;80;25727;-72
2022/12/10 04:37:07;;;;;;;21.55;12.03;;;;;;;0.93;81.26;95798.87;1782268;80;25757;-74
2022/12/10 04:39:34;;;;;;;18.98;10.90;;;;;;;0.94;81.26;95796.53;1782157;80;27362;-72
2022/12/10 04:42:01;;;;;;;17.30;11.12;;;;;;;0.95;81.24;95787.05;1782025;80;25797;-74
2022/12/10 04:44:28;;;;;;;17.35;11.50;;;;;;;0.94;81.22;95786.73;1760292;80;25313;-74
2022/12/10 04:46:55;;;;;;;17.50;11.03;;;;;;;0.98;81.25;95798.59;1782126;80;26449;-73
2022/12/10 04:49:22;;;;;;;15.45;10.58;;;;;;;0.99;81.27;95806.88;1758540;80;25347;-72
2022/12/10 04:51:49;;;;;;;15.30;10.68;;;;;;;1.02;81.26;95807.02;1762398;80;28209;-74
2022/12/10 04:54:16;;;;;;;13.60;10.58;;;;;;;1.00;81.18;95811.19;1781968;80;25838;-74
2022/12/10 04:56:43;;;;;;;15.25;10.48;;;;;;;1.02;81.19;95823.78;1768455;80;25974;-74
2022/12/10 04:59:10;;;;;;;13.90;10.58;;;;;;;0.99;81.14;95834.78;1763115;80;26388;-74
2022/12/10 05:01:37;;;;;;;13.75;10.00;;;;;;;0.97;81.15;95834.14;1794891;78;25828;-74
2022/12/10 05:04:08;;;;;;;15.10;10.55;;;;;;;0.95;81.12;95852.14;1814910;76;27513;-74
2022/12/10 05:06:35;;;;;;;15.00;10.60;;;;;;;0.90;81.13;95850.54;1826316;76;25396;-72
2022/12/10 05:09:03;;;;;;;15.32;11.38;;;;;;;0.92;81.24;95849.85;1798261;78;25662;-73
2022/12/10 05:11:32;;;;;;;17.35;11.83;;;;;;;0.93;81.26;95857.31;1798327;77;26121;-72
2022/12/10 05:14:00;;;;;;;17.30;10.78;;;;;;;0.94;81.25;95870.92;1811169;77;25710;-73
2022/12/10 05:16:30;;;;;;;13.72;9.88;;;;;;;0.96;81.28;95877.70;1807817;77;27408;-74
2022/12/10 05:18:57;;;;;;;15.63;10.82;;;;;;;0.95;81.26;95886.67;1798202;78;25749;-72
2022/12/10 05:23:27;;;;;;;17.00;11.28;;;;;;;0.98;81.27;95891.59;1798308;77;25664;-74
2022/12/10 05:23:58;;;;;;;14.33;10.45;;;;;;;0.92;81.18;95892.36;1805666;78;25757;-73
2022/12/10 05:26:24;;;;;;;14.15;10.48;;;;;;;0.93;81.28;95894.00;1798356;77;25610;-73
2022/12/10 05:28:56;;;;;;;15.15;11.15;;;;;;;0.95;81.31;95901.28;1805264;76;27355;-74
2022/12/10 05:31:27;;;;;;;16.27;11.08;;;;;;;0.95;81.32;95907.93;1824564;77;33143;-75
2022/12/10 05:33:56;;;;;;;17.32;11.43;;;;;;;0.96;81.32;95916.22;1829752;77;25694;-72
2022/12/10 05:36:26;;;;;;;19.27;12.10;;;;;;;0.93;81.31;95920.58;1781081;79;26318;-74
2022/12/10 05:38:55;;;;;;;18.45;12.30;;;;;;;0.94;81.35;95908.11;1802844;78;25791;-72
2022/12/10 05:41:25;;;;;;;18.35;11.70;;;;;;;0.90;81.36;95908.98;1802619;78;27354;-75
2022/12/10 05:43:55;;;;;;;15.95;11.78;;;;;;;0.91;81.42;95894.70;1802568;79;25213;-74
2022/12/10 05:46:25;;;;;;;18.65;11.83;;;;;;;0.89;81.47;95894.05;1802356;78;25677;-72
2022/12/10 05:48:52;;;;;;;18.70;13.38;;;;;;;0.83;81.48;95880.21;1802670;79;25858;-72
2022/12/10 05:51:24;;;;;;;17.60;12.03;;;;;;;0.79;81.52;95870.96;1802726;78;25981;-73
2022/12/10 05:53:52;;;;;;;12.78;7.95;;;;;;;0.77;81.63;95865.01;1787126;78;27372;-75
2022/12/10 05:56:22;;;;;;;17.35;11.70;;;;;;;0.73;81.71;95867.71;1768177;79;25790;-73
2022/12/10 05:58:52;;;;;;;15.60;10.85;;;;;;;0.73;81.80;95873.02;1770362;79;25469;-72
2022/12/10 06:01:22;;;;;;;17.85;11.22;;;;;;;0.76;81.87;95872.66;1793054;79;25717;-73
2022/12/10 06:03:52;;;;;;;17.67;12.25;;;;;;;0.78;81.86;95856.53;1770761;79;25674;-74
2022/12/10 06:06:25;;;;;;;17.48;11.40;;;;;;;0.76;81.86;95844.77;1770692;79;27473;-74
2022/12/10 06:08:52;;;;;;;17.95;11.73;;;;;;;0.76;81.91;95852.73;1715813;81;25732;-72
2022/12/10 06:11:19;;;;;;;21.37;13.78;;;;;;;0.81;82.00;95864.96;1733888;81;25741;-73
2022/12/10 06:13:46;;;;;;;17.65;11.22;;;;;;;0.83;81.95;95872.75;1733659;81;25912;-73
2022/12/10 06:16:15;;;;;;;17.80;12.28;;;;;;;0.82;81.94;95881.22;1733803;81;25713;-74
2022/12/10 06:18:42;;;;;;;18.15;13.45;;;;;;;0.78;81.89;95890.56;1730072;81;27504;-72
2022/12/10 06:21:14;;;;;;;18.90;12.10;;;;;;;0.81;81.98;95908.79;1734019;81;25849;-74
2022/12/10 06:23:42;;;;;;;18.30;11.65;;;;;;;0.84;82.02;95907.09;1733981;81;25813;-75
2022/12/10 06:26:15;;;;;;;17.20;11.28;;;;;;;0.88;82.02;95909.67;1733912;81;26487;-72
2022/12/10 06:28:44;;;;;;;18.23;13.13;;;;;;;0.91;82.00;95912.47;1733973;81;25818;-74
2022/12/10 06:31:10;;;;;;;21.37;14.78;;;;;;;0.93;82.00;95912.60;1733991;81;27396;-72
2022/12/10 06:33:37;;;;;;;26.52;16.55;;;;;;;0.97;82.01;95913.85;1733855;81;25814;-73
2022/12/10 06:36:07;;;;;;;19.45;12.68;;;;;;;0.99;81.98;95918.98;1733938;81;25766;-74
2022/12/10 06:38:35;;;;;;;17.23;12.00;;;;;;;1.00;81.96;95921.96;1691140;83;26499;-74
2022/12/10 06:41:05;;;;;;;22.85;14.03;;;;;;;0.99;81.95;95933.09;1690839;83;25776;-75
2022/12/10 06:43:32;;;;;;;22.00;14.38;;;;;;;1.02;81.96;95949.17;1663085;84;27445;-74
2022/12/10 06:45:58;;;;;;;17.87;12.40;;;;;;;1.05;81.97;95958.11;1662907;86;25770;-72
2022/12/10 06:48:25;;;;;;;19.60;12.15;;;;;;;1.08;82.12;95969.20;1663176;86;25750;-71
2022/12/10 06:50:51;;;;;;;17.20;11.45;;;;;;;1.12;82.19;95974.11;1663139;84;26434;-73
2022/12/10 06:53:18;;;;;;;16.82;10.85;;;;;;;1.16;82.21;95979.38;1663137;86;26341;-72
2022/12/10 06:55:45;;;;;;;16.57;11.38;;;;;;;1.17;82.14;95965.08;1663621;86;28202;-73
2022/12/10 06:58:12;;;;;;;15.93;11.90;;;;;;;1.17;82.01;95967.74;1668251;84;25727;-74
2022/12/10 07:00:38;;;;;;;19.82;12.10;;;;;;;1.18;81.97;95970.72;1668361;85;25895;-72
2022/12/10 07:03:05;;;;;;;19.85;13.08;;;;;;;1.17;81.96;95966.41;1668407;85;25810;-74
2022/12/10 07:05:32;;;;;;;16.77;11.73;;;;;;;1.18;81.95;95961.41;1673371;85;25764;-76
2022/12/10 07:07:58;;;;;;;15.88;11.08;;;;;;;1.10;81.89;95957.02;1678683;84;28173;-74
2022/12/10 07:10:25;;;;;;;14.00;9.88;;;;;;;1.00;81.91;95967.95;1678535;85;25777;-76
2022/12/10 07:12:52;;;;;;;14.68;10.45;;;;;;;0.92;81.99;95961.94;1678714;85;25800;-72
2022/12/10 07:15:18;;;;;;;14.33;9.23;;;;;;;0.90;82.07;95954.15;1671814;84;26256;-74
2022/12/10 07:17:45;;;;;;;12.90;8.30;;;;;;;0.92;82.14;95962.77;1666224;85;25781;-74
2022/12/10 07:20:12;;;;;;;12.15;8.30;;;;;;;0.86;82.12;95959.51;1678766;84;27554;-74
2022/12/10 07:22:39;;;;;;;11.68;8.35;;;;;;;0.84;82.19;95961.55;1678708;84;26384;-73
2022/12/10 07:25:06;;;;;;;13.38;8.68;;;;;;;0.81;82.23;95954.45;1678628;84;25985;-75
2022/12/10 07:27:33;;;;;;;12.53;8.80;;;;;;;0.79;82.27;95955.96;1678786;84;25683;-74
2022/12/10 07:29:59;;;;;;;16.30;11.63;;;;;;;0.84;82.39;95950.92;1678691;84;25707;-73
2022/12/10 07:32:28;;;;;;;23.40;17.15;;;;;;;0.87;82.39;95954.52;1678611;84;28194;-76
2022/12/10 07:34:55;;;;;;;20.25;14.73;;;;;;;0.90;82.40;95959.97;1678507;84;26015;-73
2022/12/10 07:37:21;;;;;;;19.20;12.68;;;;;;;0.94;82.44;95955.94;1678615;85;25906;-73
2022/12/10 07:39:48;;;;;;;18.30;12.63;;;;;;;0.95;82.38;95954.42;1678826;85;25812;-77
2022/12/10 07:42:15;;;;;;;17.02;12.63;;;;;;;0.99;82.40;95950.87;1690138;83;25830;-73
2022/12/10 07:44:42;;;;;;;18.05;13.83;;;;;;;1.00;82.37;95953.34;1695935;83;28143;-73
2022/12/10 07:47:08;;;;;;;18.32;12.75;;;;;;;1.01;82.35;95954.99;1725849;80;25865;-72
2022/12/10 07:49:35;;;;;;;21.73;13.68;;;;;;;1.00;82.35;95941.89;1749574;80;25690;-73
2022/12/10 07:52:01;;;;;;;17.73;12.75;;;;;;;1.01;82.37;95945.69;1757993;80;26277;-73
2022/12/10 07:54:28;;;;;;;21.55;12.30;;;;;;;1.04;82.38;95958.61;1764873;80;25833;-74
2022/12/10 07:56:55;;;;;;;19.27;13.72;;;;;;;1.05;82.39;95954.95;1755561;79;27585;-74
2022/12/10 07:59:21;;;;;;;20.30;12.85;;;;;;;1.08;82.43;95961.22;1768821;79;25906;-74
2022/12/10 08:01:49;;;;;;;33.73;20.95;;;;;;;1.14;82.47;95958.80;1769314;79;25732;-74
2022/12/10 08:04:15;;;;;;;26.62;18.15;;;;;;;1.17;82.44;95960.59;1769320;79;25712;-74
2022/12/10 08:06:42;;;;;;;32.17;21.73;;;;;;;1.22;82.40;95978.11;1791308;79;26012;-73
2022/12/10 08:09:12;;;;;;;47.35;33.25;;;;;;;1.25;82.36;95982.23;1769296;79;27367;-72
2022/12/10 08:11:38;;;;;;;40.63;29.45;;;;;;;1.27;82.35;95976.23;1784564;79;25653;-73
2022/12/10 08:14:05;;;;;;;48.90;31.15;;;;;;;1.27;82.27;95977.05;1778686;79;25815;-73
2022/12/10 08:16:32;;;;;;;48.70;31.33;;;;;;;1.24;82.25;95978.75;1788503;79;25704;-75
2022/12/10 08:19:01;;;;;;;45.35;28.32;;;;;;;1.25;82.22;95979.58;1769348;79;25763;-76
2022/12/10 08:21:31;;;;;;;36.08;23.87;;;;;;;1.27;82.27;95980.22;1790594;79;27388;-75
2022/12/10 08:23:59;;;;;;;35.63;21.60;;;;;;;1.28;82.33;95981.36;1790033;79;25791;-72
2022/12/10 08:26:30;;;;;;;34.88;22.73;;;;;;;1.31;82.29;95984.16;1769998;79;25819;-74
2022/12/10 08:28:58;;;;;;;34.75;23.12;;;;;;;1.32;82.33;95990.62;1788458;79;26570;-76
2022/12/10 08:31:26;;;;;;;32.28;22.70;;;;;;;1.37;82.34;95996.68;1783327;79;25792;-73
2022/12/10 08:33:54;;;;;;;30.65;20.90;;;;;;;1.39;82.27;95999.47;1778987;79;27391;-73
2022/12/10 08:36:20;;;;;;;27.98;19.67;;;;;;;1.40;82.26;96001.63;1793935;79;25769;-72
2022/12/10 08:38:47;;;;;;;30.00;21.17;;;;;;;1.43;82.30;95993.28;1781723;79;25800;-74
2022/12/10 08:41:18;;;;;;;31.00;20.90;;;;;;;1.46;82.26;95994.20;1769373;79;25727;-73
2022/12/10 08:43:46;;;;;;;31.35;20.92;;;;;;;1.47;82.20;95999.02;1716167;82;25833;-74
2022/12/10 08:46:14;;;;;;;30.57;20.32;;;;;;;1.48;82.21;95992.70;1729163;82;28212;-73
2022/12/10 08:48:42;;;;;;;32.38;22.20;;;;;;;1.49;82.16;95998.33;1715166;82;25731;-74
2022/12/10 08:51:11;;;;;;;34.30;21.65;;;;;;;1.47;82.09;95997.70;1723185;82;25252;-76
2022/12/10 08:53:38;;;;;;;34.15;22.90;;;;;;;1.50;82.15;95994.66;1704756;82;26579;-74
2022/12/10 08:56:05;;;;;;;25.52;18.42;;;;;;;1.54;82.21;95992.78;1708721;82;25709;-73
2022/12/10 08:58:32;;;;;;;25.08;16.95;;;;;;;1.59;82.20;95989.53;1718798;82;27387;-73
2022/12/10 09:00:59;;;;;;;24.07;16.87;;;;;;;1.60;82.09;95992.00;1703607;82;25787;-77
2022/12/10 09:03:25;;;;;;;27.45;17.65;;;;;;;1.59;82.05;95986.37;1703556;82;25789;-73
2022/12/10 09:05:52;;;;;;;31.85;19.37;;;;;;;1.63;82.09;95984.98;1703318;82;25755;-73
2022/12/10 09:08:19;;;;;;;32.00;20.82;;;;;;;1.66;82.06;95985.12;1717705;82;26909;-73
2022/12/10 09:10:45;;;;;;;33.35;20.95;;;;;;;1.68;82.05;95987.91;1729724;82;27364;-73
2022/12/10 09:13:12;;;;;;;30.37;19.75;;;;;;;1.64;81.97;95979.98;1729872;82;25783;-73
2022/12/10 09:15:39;;;;;;;33.78;21.20;;;;;;;1.60;81.90;95981.37;1729591;82;25811;-73
2022/12/10 09:18:05;;;;;;;39.33;23.40;;;;;;;1.60;81.92;95979.21;1721794;82;25812;-75
2022/12/10 09:20:32;;;;;;;35.33;22.60;;;;;;;1.61;81.97;95972.38;1727477;82;25708;-75
2022/12/10 09:22:59;;;;;;;38.15;24.18;;;;;;;1.60;81.94;95966.73;1704526;82;27343;-72
2022/12/10 09:25:25;;;;;;;41.55;24.27;;;;;;;1.60;81.98;95956.61;1727327;82;25770;-74
2022/12/10 09:27:52;;;;;;;44.55;25.50;;;;;;;1.60;81.99;95958.76;1729918;82;25725;-73
2022/12/10 09:30:19;;;;;;;49.55;30.50;;;;;;;1.60;81.92;95957.42;1729837;82;25940;-76
2022/12/10 09:32:45;;;;;;;49.23;29.98;;;;;;;1.63;82.00;95965.54;1732296;82;25854;-77
2022/12/10 09:35:12;;;;;;;48.68;28.98;;;;;;;1.67;82.01;95968.97;1723342;82;27662;-73
2022/12/10 09:37:39;;;;;;;46.65;28.02;;;;;;;1.69;81.97;95970.91;1730251;82;25625;-76
2022/12/10 09:40:06;;;;;;;44.42;27.13;;;;;;;1.67;81.87;95976.95;1746390;78;25826;-72
2022/12/10 09:42:49;;;;;;;45.80;27.32;;;;;;;1.67;81.89;95973.47;1792493;78;26465;-73
2022/12/10 09:45:33;;;;;;;40.48;25.02;;;;;;;1.66;81.93;95971.31;1784326;78;25690;-73
2022/12/10 09:48:26;;;;;;;44.05;25.57;;;;;;;1.63;81.89;95966.88;1701569;82;28214;-74
2022/12/10 09:51:07;;;;;;;45.55;28.65;;;;;;;1.59;81.87;95969.08;1757561;81;25758;-73
2022/12/10 09:53:36;;;;;;;52.27;30.68;;;;;;;1.55;81.99;95970.50;1757027;81;25834;-73
2022/12/10 09:56:04;;;;;;;56.83;34.45;;;;;;;1.55;82.10;95967.83;1756651;81;25831;-73
2022/12/10 09:58:31;;;;;;;54.95;32.67;;;;;;;1.58;82.17;95959.45;1756996;81;25727;-73
2022/12/10 10:01:04;;;;;;;56.83;34.60;;;;;;;1.58;82.14;95962.11;1756399;81;26992;-77
2022/12/10 10:03:38;;;;;;;57.78;34.53;;;;;;;1.60;82.14;95968.06;1752502;81;25726;-73
2022/12/10 10:06:05;;;;;;;57.60;34.13;;;;;;;1.57;82.07;95960.46;1753670;81;25708;-73
2022/12/10 10:08:36;;;;;;;51.02;32.15;;;;;;;1.52;82.01;95952.25;1756749;81;25714;-77
2022/12/10 10:11:04;;;;;;;35.00;23.70;;;;;;;1.51;82.08;95958.58;1694739;84;26881;-73
2022/12/10 10:13:41;;;;;;;43.85;29.45;;;;;;;1.52;82.18;95964.72;1693062;84;27388;-73
2022/12/10 10:16:27;;;;;;;46.28;28.98;;;;;;;1.53;82.22;95965.87;1657527;85;25836;-73
2022/12/10 10:19:08;;;;;;;32.65;19.67;;;;;;;1.55;82.21;95964.35;1670706;84;25854;-73
2022/12/10 10:21:40;;;;;;;23.47;15.60;;;;;;;1.58;82.26;95966.10;1668490;84;26502;-73
2022/12/10 10:24:15;;;;;;;29.15;17.92;;;;;;;1.56;81.93;95968.16;1643453;86;25859;-72
2022/12/10 10:26:42;;;;;;;28.38;18.55;;;;;;;1.55;81.85;95965.17;1643772;86;27395;-76
2022/12/10 10:29:12;;;;;;;32.03;18.85;;;;;;;1.53;81.81;95967.20;1644384;86;26672;-73
2022/12/10 10:31:42;;;;;;;34.90;19.15;;;;;;;1.53;81.81;95963.20;1625359;86;26528;-77
2022/12/10 10:34:22;;;;;;;32.67;20.35;;;;;;;1.55;81.87;95962.52;1623837;86;26446;-74
2022/12/10 10:36:58;;;;;;;30.90;20.35;;;;;;;1.58;81.86;95965.27;1605702;87;26981;-75
2022/12/10 10:39:29;;;;;;;31.60;21.87;;;;;;;1.57;81.89;95967.11;1550682;90;27423;-74
2022/12/10 10:41:59;;;;;;;32.53;22.22;;;;;;;1.56;81.92;95961.50;1517567;93;25339;-75
2022/12/10 10:44:36;;;;;;;49.20;30.82;;;;;;;1.58;81.90;95954.13;1566531;90;25803;-73
2022/12/10 10:47:03;;;;;;;50.33;32.42;;;;;;;1.59;81.83;95955.78;1590538;90;25857;-72
2022/12/10 10:49:33;;;;;;;58.83;37.93;;;;;;;1.62;81.81;95958.06;1547484;90;25925;-72
2022/12/10 10:52:07;;;;;;;56.92;39.27;;;;;;;1.64;81.78;95954.72;1562873;90;27422;-76
2022/12/10 10:54:43;;;;;;;54.27;36.28;;;;;;;1.67;81.75;95949.02;1557532;90;26413;-73
2022/12/10 10:57:21;;;;;;;46.68;30.08;;;;;;;1.69;81.72;95946.17;1577355;90;25788;-72
2022/12/10 10:59:48;;;;;;;50.10;31.20;;;;;;;1.70;81.70;95948.61;1577361;90;25829;-73
2022/12/10 11:02:32;;;;;;;54.03;32.00;;;;;;;1.67;81.69;95958.84;1577572;90;25712;-73
2022/12/10 11:05:10;;;;;;;47.95;29.90;;;;;;;1.70;81.73;95955.27;1576436;90;27482;-75
2022/12/10 11:07:40;;;;;;;44.77;27.60;;;;;;;1.74;81.76;95955.72;1561468;90;25941;-77
2022/12/10 11:10:23;;;;;;;43.87;28.80;;;;;;;1.74;81.65;95956.53;1535214;93;25875;-75
2022/12/10 11:13:04;;;;;;;44.30;27.25;;;;;;;1.73;81.57;95960.21;1512966;94;26367;-75
2022/12/10 11:15:40;;;;;;;43.25;27.77;;;;;;;1.66;81.47;95951.36;1512743;94;26056;-74
2022/12/10 11:18:30;;;;;;;38.75;27.45;;;;;;;1.64;81.51;95949.39;1467445;96;27504;-75
2022/12/10 11:21:16;;;;;;;39.73;27.30;;;;;;;1.64;81.54;95953.38;1445288;99;25899;-75
2022/12/10 11:23:47;;;;;;;39.00;27.65;;;;;;;1.65;81.56;95952.38;1467725;97;25910;-73
2022/12/10 11:26:50;;;;;;;40.30;26.62;;;;;;;1.69;81.60;95949.62;1467630;97;25840;-74
2022/12/10 11:29:34;;;;;;;36.93;24.98;;;;;;;1.69;81.49;95938.98;1467777;97;25921;-75
2022/12/10 11:32:09;;;;;;;40.17;26.80;;;;;;;1.66;81.50;95938.06;1461302;96;27448;-75
2022/12/10 11:34:46;;;;;;;42.67;29.07;;;;;;;1.64;81.55;95937.42;1482313;94;25590;-76
2022/12/10 11:37:36;;;;;;;46.23;30.23;;;;;;;1.58;81.59;95935.52;1504763;93;25983;-76
2022/12/10 11:40:44;;;;;;;48.55;31.55;;;;;;;1.55;81.68;95933.27;1520741;92;25812;-73
2022/12/10 11:43:30;;;;;;;46.00;30.80;;;;;;;1.56;81.77;95938.90;1518827;92;25958;-75
2022/12/10 11:46:40;;;;;;;52.38;32.13;;;;;;;1.56;81.83;95940.23;1510840;93;27426;-73
2022/12/10 11:49:39;;;;;;;49.60;33.28;;;;;;;1.57;81.87;95937.86;1500157;93;25792;-75
2022/12/10 11:52:39;;;;;;;46.73;33.15;;;;;;;1.57;81.90;95937.86;1393247;101;25939;-72
2022/12/10 11:55:33;;;;;;;52.75;35.15;;;;;;;1.59;81.95;95950.97;1391919;101;26684;-73
2022/12/10 11:58:28;;;;;;;51.88;36.20;;;;;;;1.57;81.93;95941.84;1409146;98;25878;-75
2022/12/10 12:01:26;;;;;;;50.12;34.15;;;;;;;1.59;81.92;95941.66;1416715;100;27497;-78
2022/12/10 12:04:22;;;;;;;43.25;26.80;;;;;;;1.56;81.91;95945.55;1434237;97;25884;-75
2022/12/10 12:07:17;;;;;;;45.05;27.02;;;;;;;1.50;81.81;95947.63;1440130;98;25897;-73
2022/12/10 12:09:55;;;;;;;51.95;30.82;;;;;;;1.46;81.79;95938.37;1437005;99;25903;-74
2022/12/10 12:12:51;;;;;;;57.67;30.70;;;;;;;1.43;81.86;95936.11;1445206;97;25890;-75
2022/12/10 12:15:24;;;;;;;67.37;36.68;;;;;;;1.42;81.90;95937.13;1530307;90;28255;-76
2022/12/10 12:18:15;;;;;;;;;;;;;;;1.43;82.01;95934.78;1560666;91;25974;-76